• Join FlightAware (Why Join?)
  • Login
  • US Flag 
12:35PM EDT


 

Airport Tracker/Info


-or-


 

Live Flight TrackerFlight Track Log ✈ VOZ989 ✈ 25-Apr-2013 ✈ YSSY / SYD - YBBN / BNE

Flight Track Log - Related Links

Times and Time Zones

All times are in EDT time to prevent confusion due to time zone crossing. See the VOZ989 flight status page for this flight to view local times or setup timezone preferences in your user account.

Time Position Orientation Groundspeed Altitude Reporting Facility
EDT Latitude Longitude Course Direction KTS MPH feet Rate Location/Type
06:07AM -33.9410 151.1780 168° South 19 22  Level FlightAware
06:11AM -33.9754 151.1950 162° South 145 167 500 60 Climbing Aus ATC (RADAR)
06:11AM -33.9780 151.1960 158° South 166 191 400 1,860 Descending FlightAware
06:12AM -33.9940 151.2189 158° South 176 203 1,600 1,920 Climbing Aus ATC (RADAR)
06:13AM -34.0336 151.2717 132° Southeast 249 287 3,000 1,080 Climbing Aus ATC (RADAR)
06:13AM -34.0320 151.2700 132° Southeast 257 296 2,700 1,560 Descending FlightAware
06:13AM -34.0450 151.2870 133° Southeast 275 316 3,500 3,120 Climbing FlightAware
06:13AM -34.0490 151.3020 108° East 281 323 4,000 1,800 Climbing FlightAware
06:14AM -34.0350 151.3480 70° East 307 353 4,700 1,020 Climbing FlightAware
06:14AM -34.0160 151.3610 30° Northeast 309 356 4,800 1,020 Climbing FlightAware
06:14AM -33.9810 151.3740 30° Northeast 302 348 5,400 2,280 Climbing FlightAware
06:14AM -33.9735 151.3765 30° Northeast 305 351 5,800 2,880 Climbing Aus ATC (RADAR)
06:15AM -33.9470 151.3860 16° North 304 350 6,600 2,400 Climbing FlightAware
06:15AM -33.9120 151.4000 18° North 321 369 7,800 3,120 Climbing FlightAware
06:16AM -33.8690 151.4170 18° North 323 372 9,500 3,780 Climbing FlightAware
06:16AM -33.8395 151.4288 18° North 322 371 10,700 2,700 Climbing Aus ATC (RADAR)
06:16AM -33.8080 151.4410 18° North 338 389 11,300 2,640 Climbing FlightAware
06:17AM -33.7665 151.4571 18° North 354 407 12,800 3,420 Climbing Aus ATC (RADAR)
06:17AM -33.7360 151.4690 18° North 358 412 13,900 3,660 Climbing FlightAware
06:18AM -33.6793 151.4911 18° North 363 418 16,200 3,420 Climbing Aus ATC (RADAR)
06:18AM -33.6730 151.4940 18° North 360 414 16,200 2,400 Level FlightAware
06:18AM -33.6060 151.5200 18° North 376 433 18,100 2,820 Climbing FlightAware
06:19AM -33.5290 151.5490 17° North 392 451 20,200 3,120 Climbing FlightAware
06:20AM -33.4645 151.5743 17° North 402 463 22,200 2,880 Climbing Aus ATC (RADAR)
06:20AM -33.4670 151.5730 17° North 404 465 21,900 2,160 Descending FlightAware
06:21AM -33.3800 151.6070 18° North 404 465 24,100 2,760 Climbing FlightAware
06:21AM -33.3009 151.6374 18° North 418 481 26,000 2,220 Climbing Aus ATC (RADAR)
06:21AM -33.3060 151.6350 18° North 422 486 25,600 1,620 Descending FlightAware
06:22AM -33.2210 151.6680 18° North 423 487 27,300 2,220 Climbing FlightAware
06:23AM -33.1460 151.6970 18° North 425 489 28,800 2,700 Climbing FlightAware
06:23AM -33.1068 151.7123 18° North 429 494 29,800 2,220 Climbing Aus ATC (RADAR)
06:23AM -33.0690 151.7270 18° North 425 489 30,300 1,980 Climbing FlightAware
06:24AM -32.9940 151.7550 17° North 422 486 32,000 2,820 Climbing FlightAware
06:24AM -32.9424 151.7751 17° North 421 484 33,300 1,320 Climbing Aus ATC (RADAR)
06:25AM -32.9100 151.7870 17° North 410 472 33,000 -300 Descending FlightAware
06:26AM -32.8250 151.8190 18° North 436 502 33,000 120 Level FlightAware
06:26AM -32.7574 151.8456 18° North 440 506 33,200  Climbing Aus ATC (RADAR)
06:26AM -32.7490 151.8490 18° North 437 503 33,000  Descending FlightAware
06:27AM -32.6636 151.8812 18° North 450 518 33,200  Climbing Aus ATC (RADAR)
06:27AM -32.6680 151.8790 18° North 457 526 33,000 -300 Descending FlightAware
06:28AM -32.5780 151.9130 18° North 459 528 33,000 180 Level FlightAware
06:28AM -32.5264 151.9328 18° North 450 518 33,200  Climbing Aus ATC (RADAR)
06:28AM -32.4960 151.9440 18° North 458 527 33,000 -240 Descending FlightAware
06:29AM -32.4200 151.9730 18° North 457 526 33,000 180 Level FlightAware
06:29AM -32.3546 151.9973 18° North 455 524 33,200  Climbing Aus ATC (RADAR)
06:30AM -32.3260 152.0080 18° North 455 524 33,000 -240 Descending FlightAware
06:30AM -32.2450 152.0390 18° North 454 522 33,000 180 Level FlightAware
06:31AM -32.2007 152.0556 18° North 451 519 33,200  Climbing Aus ATC (RADAR)
06:31AM -32.1570 152.0720 18° North 452 520 33,000 -180 Descending FlightAware
06:32AM -32.0770 152.1020 18° North 444 511 33,000  Level FlightAware
06:33AM -31.9700 152.1430 18° North 451 519 33,000 120 Level FlightAware
06:33AM -31.9221 152.1608 18° North 447 514 33,200  Climbing Aus ATC (RADAR)
06:33AM -31.8950 152.1710 18° North 450 518 33,000 120 Descending FlightAware
06:34AM -31.8526 152.1865 18° North 447 514 33,300  Climbing Aus ATC (RADAR)
06:34AM -31.8010 152.2050 18° North 450 518 33,000  Descending FlightAware
06:34AM -31.7531 152.2233 18° North 447 514 33,300 480 Climbing Aus ATC (RADAR)
06:35AM -31.7233 152.2342 17° North 447 514 33,300 -840 Level Aus ATC (RADAR)
06:35AM -31.7170 152.2360 17° North 451 519 33,000 -240 Descending FlightAware
06:35AM -31.6577 152.2579 17° North 449 517 33,200  Climbing Aus ATC (RADAR)
06:36AM -31.6240 152.2710 17° North 450 518 33,000 -240 Descending FlightAware
06:36AM -31.5460 152.2990 17° North 449 517 33,000 180 Level FlightAware
06:37AM -31.4899 152.3207 17° North 445 512 33,200  Climbing Aus ATC (RADAR)
06:37AM -31.4620 152.3310 17° North 447 514 33,000 -240 Descending FlightAware
06:38AM -31.3820 152.3600 17° North 445 512 33,000 180 Level FlightAware
06:38AM -31.3186 152.3840 17° North 439 505 33,200 240 Climbing Aus ATC (RADAR)
06:38AM -31.2888 152.3947 17° North 441 507 33,200 -420 Level Aus ATC (RADAR)
06:39AM -31.2740 152.4000 17° North 443 510 33,000  Descending FlightAware
06:39AM -31.2251 152.4188 17° North 443 510 33,200  Climbing Aus ATC (RADAR)
06:39AM -31.1820 152.4340 17° North 442 509 33,000  Descending FlightAware
06:40AM -31.1084 152.4614 17° North 439 505 33,200  Climbing Aus ATC (RADAR)
06:40AM -31.0860 152.4680 17° North 441 507 33,000 -240 Descending FlightAware
06:41AM -31.0200 152.4920 17° North 441 507 33,000 240 Level FlightAware
06:41AM -30.9383 152.5226 17° North 433 498 33,300  Climbing Aus ATC (RADAR)
06:42AM -30.9530 152.5160 17° North 441 507 33,000  Descending FlightAware
06:42AM -30.8475 152.5569 17° North 435 501 33,300  Climbing Aus ATC (RADAR)
06:42AM -30.8870 152.5390 17° North 441 507 33,000  Descending FlightAware
06:43AM -30.7453 152.5926 17° North 435 501 33,300  Climbing Aus ATC (RADAR)
06:43AM -30.8040 152.5690 17° North 441 507 33,000 -420 Descending FlightAware
06:44AM -30.6710 152.6200 18° North 434 499 33,000  Level FlightAware
06:44AM -30.5940 152.6470 17° North 434 499 33,000 180 Level FlightAware
06:45AM -30.5159 152.6772 17° North 430 495 33,300  Climbing Aus ATC (RADAR)
06:45AM -30.5290 152.6710 17° North 434 499 33,000  Descending FlightAware
06:46AM -30.4532 152.6996 17° North 436 502 33,300  Climbing Aus ATC (RADAR)
06:46AM -30.4290 152.7070 17° North 435 501 33,000 -300 Descending FlightAware
06:47AM -30.3400 152.7400 18° North 435 501 33,000 240 Level FlightAware
06:47AM -30.2994 152.7550 18° North 436 502 33,300  Climbing Aus ATC (RADAR)
06:47AM -30.2720 152.7640 18° North 435 501 33,000 -300 Descending FlightAware
06:48AM -30.1860 152.7950 17° North 435 501 33,000 240 Level FlightAware
06:48AM -30.1398 152.8113 17° North 431 496 33,300  Climbing Aus ATC (RADAR)
06:49AM -30.1000 152.8260 17° North 435 501 33,000  Descending FlightAware
06:49AM -30.0491 152.8445 17° North 436 502 33,300  Climbing Aus ATC (RADAR)
06:49AM -30.0220 152.8540 17° North 436 502 33,000  Descending FlightAware
06:50AM -29.9527 152.8787 17° North 435 501 33,300  Climbing Aus ATC (RADAR)
06:50AM -29.9360 152.8850 17° North 436 502 33,000 -180 Descending FlightAware
06:51AM -29.8605 152.9108 17° North 431 496 33,200  Climbing Aus ATC (RADAR)
06:51AM -29.8590 152.9120 17° North 436 502 33,000 -300 Descending FlightAware
06:51AM -29.7820 152.9390 17° North 435 501 33,000 300 Level FlightAware
06:52AM -29.7357 152.9561 17° North 431 496 33,300  Climbing Aus ATC (RADAR)
06:52AM -29.6940 152.9710 17° North 435 501 33,000 -300 Descending FlightAware
06:53AM -29.6200 152.9970 17° North 431 496 33,000 180 Level FlightAware
06:53AM -29.5788 153.0138 17° North 430 495 33,200  Climbing Aus ATC (RADAR)
06:53AM -29.5400 153.0250 17° North 430 495 33,000 60 Descending FlightAware
06:54AM -29.4678 153.0491 17° North 426 490 33,300  Climbing Aus ATC (RADAR)
06:54AM -29.4550 153.0550 17° North 429 494 33,000 -360 Descending FlightAware
06:55AM -29.3790 153.0820 17° North 427 491 33,000 240 Level FlightAware
06:55AM -29.3069 153.1060 17° North 421 484 33,300  Climbing Aus ATC (RADAR)
06:56AM -29.2950 153.1110 17° North 426 490 33,000 -360 Descending FlightAware
06:56AM -29.2190 153.1380 17° North 425 489 33,000 300 Level FlightAware
06:57AM -29.1730 153.1483 17° North 422 486 33,300  Climbing Aus ATC (RADAR)
06:57AM -29.1520 153.1620 17° North 424 488 33,000  Descending FlightAware
06:57AM -29.0920 153.1836 17° North 413 475 33,300  Climbing Aus ATC (RADAR)
06:58AM -29.0450 153.1990 17° North 423 487 33,000 -120 Descending FlightAware
06:58AM -28.9934 153.2179 17° North 422 486 33,200  Climbing Aus ATC (RADAR)
06:58AM -28.9790 153.2230 17° North 423 487 33,000 -960 Descending FlightAware
06:59AM -28.9091 153.2474 17° North 422 486 32,500 -1,680 Descending Aus ATC (RADAR)
06:59AM -28.8850 153.2560 17° North 418 481 31,600 -2,760 Descending FlightAware
07:00AM -28.8059 153.2836 17° North 423 487 30,000 -2,700 Descending Aus ATC (RADAR)
07:00AM -28.7990 153.2860 17° North 423 487 29,600 -2,520 Descending FlightAware
07:01AM -28.7320 153.3090 17° North 418 481 28,200 -2,760 Descending FlightAware
07:01AM -28.6470 153.3310 13° North 405 466 25,700 -3,360 Descending FlightAware
07:02AM -28.5851 153.3188 13° North 398 458 23,900 -3,780 Descending Aus ATC (RADAR)
07:02AM -28.5670 153.3130 13° North 398 458 23,200 -2,760 Descending FlightAware
07:02AM -28.5229 153.2997 13° North 394 453 22,300 -2,880 Descending Aus ATC (RADAR)
07:03AM -28.4960 153.2920 13° North 394 453 21,300 -3,240 Descending FlightAware
07:03AM -28.4341 153.2726 13° North 399 459 19,600 -2,940 Descending Aus ATC (RADAR)
07:04AM -28.4150 153.2670 13° North 396 456 19,100 -1,200 Descending FlightAware
07:04AM -28.3725 153.2542 13° North 389 448 18,900 -1,500 Descending Aus ATC (RADAR)
07:04AM -28.3460 153.2470 13° North 370 426 18,100 -2,280 Descending FlightAware
07:05AM -28.2830 153.2280 345° North 362 417 16,700 -2,040 Descending FlightAware
07:05AM -28.2499 153.2178 345° North 361 415 16,200 -2,160 Descending Aus ATC (RADAR)
07:06AM -28.2090 153.2060 345° North 353 406 15,100 -2,220 Descending FlightAware
07:06AM -28.1470 153.1880 346° North 347 399 13,700 -1,980 Descending FlightAware
07:07AM -28.0854 153.1693 346° North 344 396 12,600 -2,040 Descending Aus ATC (RADAR)
07:07AM -28.0770 153.1670 346° North 342 394 12,200 -2,040 Descending FlightAware
07:08AM -28.0170 153.1494 346° North 338 389 11,100 -1,980 Descending Aus ATC (RADAR)
07:08AM -28.0160 153.1490 346° North 335 386 10,900 -2,340 Descending FlightAware
07:08AM -27.9740 153.1370 346° North 335 386 9,800 -2,100 Descending FlightAware
07:08AM -27.9421 153.1272 346° North 335 386 9,300 -2,160 Descending Aus ATC (RADAR)
07:09AM -27.9330 153.1250 346° North 333 383 8,900 -2,160 Descending FlightAware
07:09AM -27.8890 153.1120 345° North 329 379 7,900 -1,980 Descending FlightAware
07:10AM -27.8520 153.1010 345° North 325 374 7,100 -1,860 Descending FlightAware
07:10AM -27.8080 153.0880 345° North 319 367 6,200 -1,920 Descending FlightAware
07:10AM -27.7870 153.0820 346° North 316 364 5,700 -1,200 Descending FlightAware
07:11AM -27.7530 153.0720 345° North 300 345 5,400 -780 Descending FlightAware
07:11AM -27.7350 153.0670 346° North 287 330 5,200 -540 Descending FlightAware
07:11AM -27.6960 153.0550 345° North 266 306 5,000 -240 Descending FlightAware
07:12AM -27.6681 153.0472 345° North 260 299 5,000 -480 Level Aus ATC (RADAR)
07:12AM -27.6670 153.0470 345° North 250 288 4,800 -900 Descending FlightAware
07:12AM -27.6350 153.0370 345° North 233 268 4,500 -600 Descending FlightAware
07:13AM -27.6090 153.0300 347° North 224 258 4,300 -900 Descending FlightAware
07:13AM -27.5800 153.0220 346° North 216 249 3,700 -1,380 Descending FlightAware
07:14AM -27.5650 153.0250 10° North 219 252 3,300 -1,380 Descending FlightAware
07:14AM -27.5400 153.0400 28° Northeast 212 244 2,700 -1,140 Descending FlightAware
07:14AM -27.5170 153.0530 27° Northeast 201 231 2,300 -1,140 Descending FlightAware
07:15AM -27.4940 153.0660 27° Northeast 178 205 1,700 -900 Descending FlightAware
07:15AM -27.4737 153.0778 27° Northeast 171 197 1,500 -720 Descending Aus ATC (RADAR)
07:15AM -27.4770 153.0760 27° Northeast 160 184 1,400 -1,200 Descending FlightAware
07:16AM -27.4670 153.0810 24° Northeast 148 170 1,200 -540 Descending FlightAware
07:16AM -27.4531 153.0893 24° Northeast 144 166 1,100 -840 Descending Aus ATC (RADAR)
07:16AM -27.4500 153.0910 24° Northeast 130 150 800 -1,200 Descending FlightAware
07:16AM -27.4450 153.0940 28° Northeast 129 148 700 -600 Descending FlightAware
07:17AM -27.4290 153.1030 27° Northeast 128 147 400 -420 Descending FlightAware
07:17AM -27.4183 153.1093 27° Northeast 131 151 400  Level Aus ATC (RADAR)
07:17AM -27.4130 153.1130 27° Northeast 132 152 -1,620 Descending FlightAware
07:18AM -27.3990 153.1210 27° Northeast 135 155  Level FlightAware
07:18AM -27.3890 153.1260 24° Northeast 34 39  Level FlightAware
07:18AM -27.3870 153.1270 24° Northeast 23 26  Level FlightAware
07:19AM -27.3840 153.1260 344° North 13 15  Level FlightAware
07:20AM -27.3850 153.1250 222° Southwest 18 21  Level FlightAware